Time;durP1;ratioP1;P1;durP2;ratioP2;P2;SDS_P1;SDS_P2;PMS_P1;PMS_P2;Temp;Humidity;BMP_temperature;BMP_pressure;BME280_temperature;BME280_humidity;BME280_pressure;Samples;Min_cycle;Max_cycle;Signal;HPM_P1;HPM_P2
2021/06/11 00:01:01;;;;;;;22.20;19.67;;;16.90;91.00;;;;;;5050210;28;20049;-71
2021/06/11 00:03:26;;;;;;;21.47;16.53;;;16.90;91.10;;;;;;5051085;28;20072;-71
2021/06/11 00:05:53;;;;;;;24.23;19.33;;;16.90;91.10;;;;;;5050391;28;20049;-71
2021/06/11 00:08:19;;;;;;;24.33;20.57;;;16.80;91.10;;;;;;5050495;28;20047;-71
2021/06/11 00:10:44;;;;;;;24.80;21.07;;;16.80;91.10;;;;;;5050832;28;20140;-71
2021/06/11 00:13:10;;;;;;;24.47;20.07;;;16.80;91.20;;;;;;5049733;28;20049;-71
2021/06/11 00:15:36;;;;;;;29.53;23.23;;;16.80;91.10;;;;;;5050415;28;20049;-71
2021/06/11 00:18:03;;;;;;;21.80;18.93;;;16.80;91.20;;;;;;5050360;28;20171;-71
2021/06/11 00:20:28;;;;;;;24.17;20.73;;;16.70;91.20;;;;;;5050089;28;20076;-71
2021/06/11 00:22:54;;;;;;;27.60;22.93;;;16.80;91.20;;;;;;5050619;28;20405;-71
2021/06/11 00:25:23;;;;;;;25.60;21.60;;;16.80;91.20;;;;;;5050336;28;20064;-71
2021/06/11 00:27:49;;;;;;;27.07;23.20;;;16.80;91.30;;;;;;5049978;28;20093;-71
2021/06/11 00:30:16;;;;;;;19.97;16.93;;;16.70;91.30;;;;;;5050387;28;20053;-71
2021/06/11 00:32:42;;;;;;;27.67;23.53;;;16.70;91.30;;;;;;5053351;28;20095;-71
2021/06/11 00:35:08;;;;;;;28.30;24.37;;;16.70;91.30;;;;;;5053153;28;20482;-71
2021/06/11 00:37:34;;;;;;;27.83;24.67;;;16.70;91.30;;;;;;5054071;28;20053;-71
2021/06/11 00:39:59;;;;;;;29.90;26.60;;;16.60;91.40;;;;;;5053090;28;20203;-71
2021/06/11 00:42:29;;;;;;;28.30;24.60;;;16.60;91.50;;;;;;5054144;28;20604;-71
2021/06/11 00:44:54;;;;;;;29.83;25.17;;;16.50;91.60;;;;;;5054093;28;20053;-72
2021/06/11 00:47:20;;;;;;;32.00;26.40;;;16.50;91.70;;;;;;5053023;28;20068;-71
2021/06/11 00:49:48;;;;;;;34.03;28.93;;;16.50;91.70;;;;;;5053754;28;20053;-71
2021/06/11 00:52:15;;;;;;;33.87;28.77;;;16.50;91.70;;;;;;5053202;28;20049;-71
2021/06/11 00:54:41;;;;;;;36.50;29.13;;;16.40;91.80;;;;;;5052933;28;20053;-71
2021/06/11 00:57:07;;;;;;;32.37;27.00;;;16.40;91.80;;;;;;5053571;28;20052;-71
2021/06/11 00:59:33;;;;;;;33.50;28.80;;;16.40;91.90;;;;;;5053636;28;20052;-71
2021/06/11 01:01:58;;;;;;;27.47;24.60;;;16.40;91.90;;;;;;5052593;28;20048;-71
2021/06/11 01:04:24;;;;;;;30.33;25.27;;;16.40;91.90;;;;;;5053417;28;20055;-72
2021/06/11 01:06:51;;;;;;;29.80;25.33;;;16.40;91.80;;;;;;5053590;28;20052;-71
2021/06/11 01:09:17;;;;;;;28.23;24.57;;;16.40;91.80;;;;;;5052517;28;20049;-71
2021/06/11 01:11:45;;;;;;;33.60;24.23;;;16.40;91.80;;;;;;5053455;28;20133;-71
2021/06/11 01:14:14;;;;;;;28.38;25.02;;;16.40;91.90;;;;;;5053073;28;20057;-71
2021/06/11 01:16:40;;;;;;;26.63;22.77;;;16.40;91.80;;;;;;5052496;28;20521;-71
2021/06/11 01:19:08;;;;;;;28.33;23.70;;;16.30;91.80;;;;;;5053242;28;20057;-71
2021/06/11 01:21:41;;;;;;;25.87;23.10;;;16.30;91.90;;;;;;5053254;28;20513;-71
2021/06/11 01:24:18;;;;;;;27.47;22.93;;;16.40;91.90;;;;;;5052402;28;20045;-71
2021/06/11 01:26:50;;;;;;;28.03;24.60;;;16.40;91.80;;;;;;5053412;28;20155;-71
2021/06/11 01:29:25;;;;;;;26.87;23.17;;;16.30;91.80;;;;;;5052117;28;20059;-71
2021/06/11 01:31:54;;;;;;;25.30;21.63;;;16.40;91.80;;;;;;5053000;28;20335;-71
2021/06/11 01:34:24;;;;;;;26.80;23.07;;;16.40;91.80;;;;;;5052844;28;20132;-72
2021/06/11 01:36:55;;;;;;;30.88;23.10;;;16.40;91.70;;;;;;5052391;28;20464;-71
2021/06/11 01:39:21;;;;;;;26.27;22.80;;;16.40;91.70;;;;;;5052677;28;20106;-72
2021/06/11 01:41:50;;;;;;;24.77;22.03;;;16.40;91.70;;;;;;5052798;28;20527;-71
2021/06/11 01:44:17;;;;;;;28.50;23.57;;;16.40;91.60;;;;;;5051589;28;20508;-72
2021/06/11 01:46:45;;;;;;;25.37;22.10;;;16.40;91.60;;;;;;5052669;28;20497;-72
2021/06/11 01:49:12;;;;;;;28.47;24.33;;;16.40;91.60;;;;;;5052498;28;20052;-72
2021/06/11 01:51:38;;;;;;;31.10;25.37;;;16.40;91.60;;;;;;5052020;28;20045;-71
2021/06/11 01:54:07;;;;;;;34.63;28.53;;;16.40;91.60;;;;;;5052198;28;20053;-71
2021/06/11 01:56:34;;;;;;;28.83;25.50;;;16.40;91.70;;;;;;5052542;28;20041;-71
2021/06/11 01:59:00;;;;;;;35.47;27.13;;;16.40;91.70;;;;;;5051604;28;20049;-72
2021/06/11 02:01:27;;;;;;;29.97;24.90;;;16.40;91.70;;;;;;5052479;28;20045;-71
2021/06/11 02:03:54;;;;;;;30.10;24.70;;;16.40;91.70;;;;;;5052668;28;20056;-71
2021/06/11 02:06:21;;;;;;;29.67;24.63;;;16.30;91.70;;;;;;5051406;28;20547;-71
2021/06/11 02:08:52;;;;;;;27.60;22.47;;;16.20;91.70;;;;;;5052569;28;20057;-72
2021/06/11 02:11:19;;;;;;;30.73;23.60;;;16.10;91.80;;;;;;5052109;28;20373;-72
2021/06/11 02:13:46;;;;;;;31.57;25.13;;;16.10;91.90;;;;;;5051355;28;20049;-71
2021/06/11 02:16:14;;;;;;;27.97;23.30;;;16.10;91.90;;;;;;5051762;28;20498;-71
2021/06/11 02:18:41;;;;;;;28.87;21.83;;;16.10;91.90;;;;;;5051375;28;20588;-72
2021/06/11 02:21:08;;;;;;;27.40;23.23;;;16.10;91.90;;;;;;5052044;28;20047;-72
2021/06/11 02:23:35;;;;;;;32.83;25.13;;;16.10;91.80;;;;;;5052520;28;20115;-72
2021/06/11 02:26:02;;;;;;;31.50;27.20;;;16.10;92.20;;;;;;5051313;28;20049;-71
2021/06/11 02:28:28;;;;;;;29.83;25.70;;;16.10;91.80;;;;;;5052387;28;20064;-72
2021/06/11 02:30:54;;;;;;;29.13;25.90;;;16.10;91.80;;;;;;5051855;28;20490;-72
2021/06/11 02:33:19;;;;;;;36.27;28.43;;;16.10;91.90;;;;;;5051049;28;20060;-72
2021/06/11 02:35:45;;;;;;;37.10;27.97;;;16.10;91.90;;;;;;5051976;28;20053;-72
2021/06/11 02:38:11;;;;;;;34.77;28.10;;;16.10;92.00;;;;;;5051831;28;20049;-72
2021/06/11 02:40:40;;;;;;;31.77;27.43;;;16.00;92.10;;;;;;5051050;28;20128;-72
2021/06/11 02:43:12;;;;;;;36.03;27.40;;;16.10;92.10;;;;;;5051457;28;20462;-72
2021/06/11 02:45:49;;;;;;;36.97;27.53;;;16.00;92.20;;;;;;5051845;28;20076;-72
2021/06/11 02:48:54;;;;;;;32.53;26.67;;;16.00;92.20;;;;;;5050951;28;20088;-72
2021/06/11 02:51:32;;;;;;;36.70;29.30;;;16.00;92.30;;;;;;4996518;28;20064;-72
2021/06/11 02:54:01;;;;;;;36.60;28.87;;;16.00;92.30;;;;;;5050463;28;20478;-72
2021/06/11 02:56:37;;;;;;;38.03;29.37;;;16.00;92.30;;;;;;5051893;28;20064;-72
2021/06/11 02:59:11;;;;;;;33.57;27.50;;;15.90;92.30;;;;;;5051515;28;20094;-72
2021/06/11 03:01:43;;;;;;;35.33;28.80;;;15.90;92.40;;;;;;5050455;28;20052;-72
2021/06/11 03:04:11;;;;;;;39.20;28.90;;;15.90;92.40;;;;;;5051379;28;20076;-71
2021/06/11 03:06:38;;;;;;;32.03;25.40;;;15.90;92.50;;;;;;5051472;28;20049;-71
2021/06/11 03:09:10;;;;;;;34.20;27.23;;;15.90;92.50;;;;;;5050541;28;20053;-72
2021/06/11 03:11:40;;;;;;;32.75;26.55;;;16.00;92.50;;;;;;5051432;28;20472;-72
2021/06/11 03:14:06;;;;;;;36.43;29.07;;;16.00;92.50;;;;;;5051409;28;20114;-71
2021/06/11 03:16:35;;;;;;;32.47;26.47;;;16.10;92.50;;;;;;5050664;28;20052;-72
2021/06/11 03:19:11;;;;;;;33.73;27.27;;;16.10;92.50;;;;;;5051228;28;20072;-72
2021/06/11 03:21:52;;;;;;;36.00;28.33;;;16.10;92.40;;;;;;5051548;28;20116;-72
2021/06/11 03:24:28;;;;;;;32.93;26.13;;;16.20;92.40;;;;;;5051203;28;20048;-72
2021/06/11 03:27:01;;;;;;;34.73;28.13;;;16.20;92.40;;;;;;5051668;28;20049;-72
2021/06/11 03:29:41;;;;;;;32.83;25.83;;;16.10;92.40;;;;;;5050443;28;20049;-72
2021/06/11 03:32:13;;;;;;;37.35;29.27;;;16.20;92.40;;;;;;5051145;28;20045;-72
2021/06/11 03:34:44;;;;;;;36.43;28.57;;;16.20;92.40;;;;;;5051456;28;20397;-72
2021/06/11 03:37:12;;;;;;;;;;;16.20;92.40;;;;;;5050899;28;20352;-72
2021/06/11 03:39:53;;;;;;;36.80;29.57;;;16.10;92.30;;;;;;5051414;28;19921;-72
2021/06/11 03:42:19;;;;;;;41.30;29.23;;;16.20;92.30;;;;;;5051115;28;20056;-72
2021/06/11 03:44:50;;;;;;;42.60;31.93;;;16.20;92.30;;;;;;5050084;28;20041;-71
2021/06/11 03:47:19;;;;;;;40.90;31.75;;;16.20;92.50;;;;;;5050094;28;20126;-71
2021/06/11 03:49:48;;;;;;;45.60;34.43;;;16.20;92.50;;;;;;5050931;28;20049;-71
2021/06/11 03:52:14;;;;;;;47.37;35.20;;;16.20;92.60;;;;;;5049771;28;20064;-71
2021/06/11 03:54:46;;;;;;;42.73;32.47;;;16.30;92.70;;;;;;5050632;28;20041;-72
2021/06/11 03:57:14;;;;;;;46.28;34.58;;;16.30;92.70;;;;;;5049568;28;20052;-72
2021/06/11 03:59:44;;;;;;;42.53;33.50;;;16.40;92.70;;;;;;5050706;28;20059;-71
2021/06/11 04:02:10;;;;;;;43.10;33.60;;;16.40;92.70;;;;;;5050262;28;20053;-72
2021/06/11 04:04:36;;;;;;;45.60;35.20;;;16.40;92.70;;;;;;5049972;28;20079;-71
2021/06/11 04:07:10;;;;;;;36.27;30.50;;;16.40;92.70;;;;;;5051941;28;20095;-71
2021/06/11 04:09:45;;;;;;;42.73;32.83;;;16.40;92.70;;;;;;5054558;28;20053;-71
2021/06/11 04:12:29;;;;;;;44.83;34.63;;;16.40;92.70;;;;;;5053920;28;20045;-71
2021/06/11 04:15:00;;;;;;;46.77;35.33;;;16.50;92.80;;;;;;5054494;28;20128;-72
2021/06/11 04:17:30;;;;;;;47.23;35.27;;;16.40;92.80;;;;;;5054700;28;20052;-71
2021/06/11 04:19:58;;;;;;;40.67;33.77;;;16.50;92.80;;;;;;5053988;28;20045;-72
2021/06/11 04:22:28;;;;;;;44.00;35.43;;;16.50;92.80;;;;;;5054394;28;20130;-72
2021/06/11 04:24:56;;;;;;;40.37;34.23;;;16.50;92.80;;;;;;5054335;28;20049;-72
2021/06/11 04:27:23;;;;;;;41.10;35.23;;;16.60;92.80;;;;;;5053275;28;20512;-72
2021/06/11 04:29:50;;;;;;;38.40;32.90;;;16.70;92.80;;;;;;5054406;28;20224;-72
2021/06/11 04:32:16;;;;;;;36.67;30.60;;;16.70;92.80;;;;;;5053328;28;20075;-72
2021/06/11 04:34:42;;;;;;;36.57;30.03;;;16.80;92.80;;;;;;5054637;28;20053;-72
2021/06/11 04:37:08;;;;;;;39.47;33.80;;;17.00;92.50;;;;;;5054072;28;20493;-71
2021/06/11 04:39:34;;;;;;;38.10;31.83;;;17.00;92.30;;;;;;5053558;28;20445;-71
2021/06/11 04:41:59;;;;;;;37.20;31.00;;;17.10;92.40;;;;;;5054211;28;20060;-72
2021/06/11 04:44:30;;;;;;;36.70;31.37;;;17.10;92.40;;;;;;5054556;28;20053;-72
2021/06/11 04:46:56;;;;;;;40.60;32.23;;;17.20;92.40;;;;;;5053252;28;20037;-72
2021/06/11 04:49:21;;;;;;;35.80;29.63;;;17.20;92.20;;;;;;5053941;28;20045;-71
2021/06/11 04:51:48;;;;;;;34.17;29.80;;;17.30;92.10;;;;;;5053767;28;20103;-71
2021/06/11 04:54:17;;;;;;;37.60;32.30;;;17.20;92.00;;;;;;5053016;28;20045;-70
2021/06/11 04:56:42;;;;;;;38.53;32.37;;;17.20;92.10;;;;;;5054083;28;20044;-70
2021/06/11 04:59:08;;;;;;;35.00;30.43;;;17.20;92.20;;;;;;5053438;28;20049;-71
2021/06/11 05:01:34;;;;;;;36.57;31.77;;;17.30;92.10;;;;;;5053005;28;20049;-71
2021/06/11 05:04:00;;;;;;;38.43;33.87;;;17.30;92.10;;;;;;5053193;28;20045;-71
2021/06/11 05:06:28;;;;;;;36.60;30.77;;;17.30;92.10;;;;;;5053213;28;20053;-70
2021/06/11 05:08:54;;;;;;;38.63;32.40;;;17.30;92.10;;;;;;5052795;28;20096;-71
2021/06/11 05:11:21;;;;;;;37.47;32.93;;;17.40;92.10;;;;;;5053234;28;20057;-71
2021/06/11 05:13:47;;;;;;;37.13;33.23;;;17.40;92.30;;;;;;5053053;28;20056;-70
2021/06/11 05:16:13;;;;;;;37.70;32.10;;;17.50;92.60;;;;;;5052009;28;20049;-71
2021/06/11 05:18:38;;;;;;;37.27;32.70;;;17.60;92.10;;;;;;5052951;28;20045;-71
2021/06/11 05:21:05;;;;;;;34.27;30.57;;;17.70;91.90;;;;;;5052912;28;20116;-70
2021/06/11 05:23:31;;;;;;;37.73;33.33;;;17.80;91.80;;;;;;5049459;28;20044;-71
2021/06/11 05:25:58;;;;;;;37.43;32.50;;;17.80;91.70;;;;;;5052620;28;20474;-71
2021/06/11 05:28:25;;;;;;;37.37;31.77;;;17.80;91.70;;;;;;5052132;28;20060;-70
2021/06/11 05:30:56;;;;;;;38.72;31.83;;;17.90;91.80;;;;;;5050484;28;20056;-70
2021/06/11 05:33:24;;;;;;;38.90;33.13;;;17.90;91.80;;;;;;5052886;28;20048;-71
2021/06/11 05:35:52;;;;;;;39.53;33.87;;;17.90;91.80;;;;;;5049526;28;20076;-71
2021/06/11 05:38:20;;;;;;;37.67;32.83;;;18.00;91.70;;;;;;5052551;28;20061;-71
2021/06/11 05:40:50;;;;;;;34.33;30.70;;;18.10;91.80;;;;;;5052976;28;20053;-71
2021/06/11 05:43:18;;;;;;;38.03;31.63;;;18.20;91.70;;;;;;5051777;28;20102;-70
2021/06/11 05:46:04;;;;;;;35.70;31.87;;;18.20;91.70;;;;;;5036421;28;20135;-71
2021/06/11 05:48:31;;;;;;;37.70;32.10;;;18.30;91.50;;;;;;5052617;28;20064;-69
2021/06/11 05:50:57;;;;;;;38.40;32.37;;;18.40;91.50;;;;;;5051750;28;20072;-70
2021/06/11 05:53:37;;;;;;;40.00;35.43;;;18.40;91.50;;;;;;5050530;28;20128;-70
2021/06/11 05:56:04;;;;;;;38.47;32.40;;;18.40;91.50;;;;;;5052270;28;20049;-70
2021/06/11 05:58:31;;;;;;;41.97;34.37;;;18.50;91.50;;;;;;5051492;28;20048;-71
2021/06/11 06:01:09;;;;;;;39.50;33.63;;;18.60;91.60;;;;;;5051944;28;20064;-71
2021/06/11 06:03:35;;;;;;;43.10;36.40;;;18.80;91.40;;;;;;5052146;28;20430;-71
2021/06/11 06:06:06;;;;;;;45.93;36.97;;;18.90;91.10;;;;;;5052322;28;20094;-70
2021/06/11 06:08:43;;;;;;;43.27;37.27;;;18.90;90.90;;;;;;5052844;28;20083;-71
2021/06/11 06:11:14;;;;;;;48.83;39.90;;;18.80;90.80;;;;;;5051440;28;20497;-70
2021/06/11 06:13:42;;;;;;;43.53;38.23;;;18.90;90.70;;;;;;5052854;28;20052;-71
2021/06/11 06:16:18;;;;;;;48.10;39.50;;;18.90;90.70;;;;;;5052380;28;20052;-70
2021/06/11 06:18:45;;;;;;;47.80;39.60;;;18.90;90.70;;;;;;5052042;28;20049;-71
2021/06/11 06:21:21;;;;;;;48.33;36.67;;;18.90;90.70;;;;;;5051922;28;20041;-71
2021/06/11 06:23:48;;;;;;;43.37;35.47;;;18.90;90.60;;;;;;5052534;28;20111;-70
2021/06/11 06:26:16;;;;;;;37.00;31.20;;;19.00;90.50;;;;;;5051290;28;20397;-71
2021/06/11 06:28:59;;;;;;;36.00;30.93;;;19.00;90.20;;;;;;5050936;28;20498;-71
2021/06/11 06:31:28;;;;;;;40.87;32.10;;;19.00;90.00;;;;;;5052318;28;20041;-71
2021/06/11 06:33:54;;;;;;;39.47;31.73;;;19.10;90.00;;;;;;5051390;28;20056;-71
2021/06/11 06:36:20;;;;;;;36.87;31.20;;;19.10;90.00;;;;;;5052096;28;20041;-71
2021/06/11 06:38:47;;;;;;;38.63;31.27;;;19.20;89.80;;;;;;5051590;28;20044;-70
2021/06/11 06:41:17;;;;;;;39.90;33.03;;;19.30;89.50;;;;;;5052040;28;20132;-71
2021/06/11 06:43:44;;;;;;;34.03;30.33;;;19.30;89.50;;;;;;5052213;28;20427;-71
2021/06/11 06:46:11;;;;;;;40.10;32.67;;;19.40;89.30;;;;;;5050689;28;20295;-70
2021/06/11 06:48:38;;;;;;;40.30;32.10;;;19.50;89.20;;;;;;5051812;28;20486;-71
2021/06/11 06:51:04;;;;;;;36.40;29.13;;;19.50;89.10;;;;;;5051919;28;20072;-72
2021/06/11 06:53:31;;;;;;;32.50;26.87;;;19.60;88.70;;;;;;5051319;28;20060;-72
2021/06/11 06:55:57;;;;;;;33.43;25.70;;;19.60;88.00;;;;;;5051802;28;20041;-71
2021/06/11 06:58:23;;;;;;;33.07;25.13;;;19.70;87.60;;;;;;5051989;28;20501;-71
2021/06/11 07:00:48;;;;;;;32.63;26.13;;;19.80;87.60;;;;;;5050962;28;20049;-69
2021/06/11 07:03:14;;;;;;;33.50;27.37;;;19.90;87.00;;;;;;5048888;28;20061;-68
2021/06/11 07:05:42;;;;;;;34.77;28.03;;;20.00;86.80;;;;;;5049310;28;20049;-69
2021/06/11 07:08:13;;;;;;;31.83;24.63;;;20.00;86.40;;;;;;5051159;28;20099;-71
2021/06/11 07:10:41;;;;;;;31.83;24.13;;;20.00;86.00;;;;;;5052128;28;20049;-71
2021/06/11 07:13:14;;;;;;;32.78;24.40;;;20.10;85.60;;;;;;5051467;28;20053;-69
2021/06/11 07:15:47;;;;;;;30.43;24.43;;;20.10;85.40;;;;;;5050520;28;20114;-70
2021/06/11 07:18:15;;;;;;;32.43;25.43;;;20.20;85.40;;;;;;5051027;28;20110;-70
2021/06/11 07:20:41;;;;;;;30.13;23.70;;;20.20;85.20;;;;;;5051399;28;20048;-70
2021/06/11 07:23:10;;;;;;;30.00;23.67;;;20.30;84.90;;;;;;5050378;28;20118;-69
2021/06/11 07:25:36;;;;;;;29.17;24.37;;;20.30;84.60;;;;;;5051074;28;20477;-69
2021/06/11 07:28:02;;;;;;;33.17;24.40;;;20.30;84.50;;;;;;5049841;28;20448;-69
2021/06/11 07:30:31;;;;;;;29.97;23.67;;;20.40;84.50;;;;;;5050766;28;20074;-67
2021/06/11 07:32:58;;;;;;;26.60;22.17;;;20.40;84.30;;;;;;5051137;28;20044;-68
2021/06/11 07:35:27;;;;;;;26.53;20.37;;;20.50;84.30;;;;;;5047560;28;20071;-68
2021/06/11 07:37:53;;;;;;;24.83;19.57;;;20.50;83.90;;;;;;5050971;28;20045;-67
2021/06/11 07:40:22;;;;;;;24.37;20.77;;;20.60;83.70;;;;;;5051818;28;20045;-68
2021/06/11 07:42:49;;;;;;;26.77;21.03;;;20.70;83.30;;;;;;5054648;28;20049;-68
2021/06/11 07:45:18;;;;;;;22.13;18.73;;;20.70;82.70;;;;;;5054828;28;20139;-68
2021/06/11 07:47:48;;;;;;;21.50;16.83;;;20.80;82.60;;;;;;5055114;28;20579;-67
2021/06/11 07:50:24;;;;;;;21.10;18.10;;;20.90;82.80;;;;;;5054575;28;20298;-68
2021/06/11 07:52:56;;;;;;;20.77;18.40;;;20.90;82.40;;;;;;5055019;28;20055;-67
2021/06/11 07:55:23;;;;;;;20.77;17.73;;;21.00;82.20;;;;;;5054514;28;20055;-68
2021/06/11 07:57:52;;;;;;;18.87;16.90;;;21.00;82.10;;;;;;5054123;28;20048;-68
2021/06/11 08:00:19;;;;;;;18.43;16.20;;;21.10;82.00;;;;;;5054306;28;20080;-68
2021/06/11 08:02:45;;;;;;;19.43;16.20;;;21.20;81.80;;;;;;5054850;28;20057;-67
2021/06/11 08:05:31;;;;;;;18.17;15.47;;;21.20;81.70;;;;;;5039884;28;20139;-68
2021/06/11 08:07:57;;;;;;;20.77;17.50;;;21.30;81.70;;;;;;5054627;28;20136;-67
2021/06/11 08:10:27;;;;;;;20.23;18.03;;;21.40;81.50;;;;;;5053742;28;20602;-67
2021/06/11 08:12:53;;;;;;;19.20;15.93;;;21.50;81.00;;;;;;5054525;28;20044;-69
2021/06/11 08:15:23;;;;;;;19.00;17.03;;;21.70;80.50;;;;;;5054561;28;20462;-66
2021/06/11 08:17:51;;;;;;;18.93;16.20;;;21.80;80.20;;;;;;5053867;28;20052;-68
2021/06/11 08:20:24;;;;;;;20.83;17.17;;;22.00;80.80;;;;;;5054663;28;20378;-69
2021/06/11 08:22:50;;;;;;;21.87;17.57;;;22.10;79.30;;;;;;5054650;28;20107;-68
2021/06/11 08:25:22;;;;;;;23.02;18.00;;;22.10;79.00;;;;;;5052402;28;20151;-68
2021/06/11 08:27:59;;;;;;;20.27;16.00;;;22.10;78.80;;;;;;5054022;28;20060;-69
2021/06/11 08:30:29;;;;;;;20.58;14.27;;;22.20;78.90;;;;;;5053921;28;20064;-70
2021/06/11 08:32:57;;;;;;;19.50;14.48;;;22.30;78.80;;;;;;5053422;28;20045;-73
2021/06/11 08:35:22;;;;;;;17.30;14.15;;;22.30;78.80;;;;;;5054437;28;20049;-71
2021/06/11 08:37:49;;;;;;;19.15;14.73;;;22.50;78.20;;;;;;5054466;28;20045;-70
2021/06/11 08:40:16;;;;;;;16.27;13.13;;;22.60;77.70;;;;;;5053177;28;20049;-71
2021/06/11 08:42:46;;;;;;;15.95;12.20;;;22.70;77.40;;;;;;5054257;28;20084;-72
2021/06/11 08:45:13;;;;;;;13.00;11.48;;;23.00;77.30;;;;;;5053542;28;20053;-71
2021/06/11 08:47:51;;;;;;;12.07;10.60;;;23.10;76.50;;;;;;5053963;28;20053;-71
2021/06/11 08:50:24;;;;;;;13.88;12.25;;;23.30;75.60;;;;;;5053183;28;20049;-71
2021/06/11 08:52:56;;;;;;;15.02;12.45;;;23.30;74.90;;;;;;5052423;28;20045;-72
2021/06/11 08:55:23;;;;;;;13.38;11.95;;;23.30;74.60;;;;;;5053523;28;20052;-71
2021/06/11 08:57:50;;;;;;;16.90;15.20;;;23.40;74.00;;;;;;5053472;28;20072;-71
2021/06/11 09:00:17;;;;;;;16.38;14.77;;;23.40;73.60;;;;;;5052978;28;20155;-71
2021/06/11 09:03:21;;;;;;;17.42;13.38;;;23.40;73.20;;;;;;5053827;28;20406;-71
2021/06/11 09:06:12;;;;;;;15.20;13.35;;;23.40;73.60;;;;;;5054008;28;20094;-71
2021/06/11 09:08:52;;;;;;;12.95;11.55;;;23.40;72.30;;;;;;5053086;28;20052;-71
2021/06/11 09:11:24;;;;;;;14.05;12.55;;;23.30;72.70;;;;;;5053347;28;20395;-71
2021/06/11 09:14:12;;;;;;;12.77;11.10;;;23.30;72.50;;;;;;5037910;28;20060;-71
2021/06/11 09:16:49;;;;;;;14.18;11.55;;;23.30;72.80;;;;;;5053728;28;20052;-70
2021/06/11 09:19:19;;;;;;;14.23;10.68;;;23.30;72.60;;;;;;5053344;28;20063;-71
2021/06/11 09:21:48;;;;;;;13.23;11.70;;;23.30;72.40;;;;;;5053025;28;20064;-71
2021/06/11 09:24:36;;;;;;;14.45;12.70;;;23.40;72.20;;;;;;5038315;28;20114;-71
2021/06/11 09:27:09;;;;;;;15.85;12.55;;;23.30;72.20;;;;;;5053084;28;20049;-71
2021/06/11 09:29:36;;;;;;;14.68;11.85;;;23.40;72.10;;;;;;5052170;28;20088;-71
2021/06/11 09:32:20;;;;;;;13.30;12.00;;;23.50;72.10;;;;;;5052570;28;20051;-72
2021/06/11 09:35:07;;;;;;;14.60;12.38;;;23.80;71.30;;;;;;5051940;28;20402;-71
2021/06/11 09:37:40;;;;;;;12.35;10.70;;;24.00;70.50;;;;;;5053275;28;20053;-71
2021/06/11 09:40:16;;;;;;;12.88;9.73;;;24.20;69.70;;;;;;5052075;28;20060;-71
2021/06/11 09:42:49;;;;;;;12.40;10.68;;;24.40;68.80;;;;;;5052169;28;20186;-72
2021/06/11 09:45:19;;;;;;;15.98;12.60;;;24.50;68.50;;;;;;5052510;28;20044;-71
2021/06/11 09:47:52;;;;;;;12.45;11.15;;;24.60;67.40;;;;;;5052521;28;20454;-71
2021/06/11 09:50:27;;;;;;;12.70;11.40;;;24.70;66.50;;;;;;5052165;28;20045;-69
2021/06/11 09:53:08;;;;;;;12.85;10.82;;;24.50;66.10;;;;;;5052630;28;20056;-70
2021/06/11 09:55:40;;;;;;;11.60;9.52;;;24.40;66.60;;;;;;5052646;28;20147;-70
2021/06/11 09:58:13;;;;;;;15.00;12.90;;;24.40;66.40;;;;;;5052435;28;20053;-71
2021/06/11 10:00:49;;;;;;;13.20;11.65;;;24.40;66.20;;;;;;5052585;28;20055;-71
2021/06/11 10:03:24;;;;;;;12.75;10.45;;;24.30;66.50;;;;;;5051590;28;20438;-71
2021/06/11 10:05:52;;;;;;;12.98;10.27;;;24.20;66.30;;;;;;5051927;28;20053;-70
2021/06/11 10:08:19;;;;;;;13.10;10.15;;;24.10;66.50;;;;;;5052318;28;20859;-71
2021/06/11 10:10:45;;;;;;;10.55;8.32;;;24.20;66.50;;;;;;5051415;28;20060;-72
2021/06/11 10:13:13;;;;;;;10.20;7.47;;;24.30;66.00;;;;;;5052290;28;20048;-71
2021/06/11 10:15:40;;;;;;;10.52;7.13;;;24.40;64.80;;;;;;5052315;28;20049;-70
2021/06/11 10:18:06;;;;;;;10.95;7.72;;;24.60;64.70;;;;;;5051471;28;20041;-76
2021/06/11 10:20:34;;;;;;;10.18;6.45;;;24.70;64.00;;;;;;5052348;28;20090;-71
2021/06/11 10:23:01;;;;;;;8.32;4.78;;;24.90;64.10;;;;;;5052212;28;20049;-72
2021/06/11 10:25:28;;;;;;;6.03;4.50;;;25.00;63.60;;;;;;5051759;28;20072;-70
2021/06/11 10:27:55;;;;;;;6.82;4.80;;;25.20;62.60;;;;;;5052188;28;20087;-71
2021/06/11 10:30:25;;;;;;;6.30;4.63;;;25.10;61.90;;;;;;5051422;28;20057;-71
2021/06/11 10:32:51;;;;;;;7.23;4.37;;;25.00;61.30;;;;;;5050988;28;20045;-71
2021/06/11 10:35:40;;;;;;;6.50;4.57;;;25.10;61.30;;;;;;5051404;28;20060;-71
2021/06/11 10:38:13;;;;;;;7.60;6.47;;;25.20;61.20;;;;;;5051412;28;20068;-73
2021/06/11 10:40:41;;;;;;;11.63;6.43;;;25.40;60.40;;;;;;5052089;28;20049;-72
2021/06/11 10:43:27;;;;;;;9.55;5.47;;;25.50;60.20;;;;;;5051748;28;20041;-71
2021/06/11 10:45:55;;;;;;;7.55;5.57;;;25.60;59.70;;;;;;5051242;28;20103;-72
2021/06/11 10:48:21;;;;;;;7.20;4.97;;;25.50;60.00;;;;;;5051422;28;20041;-72
2021/06/11 10:50:47;;;;;;;6.22;3.90;;;25.40;59.50;;;;;;5051613;28;20048;-72
2021/06/11 10:53:27;;;;;;;6.57;3.70;;;25.30;59.40;;;;;;5050225;28;20047;-71
2021/06/11 10:56:13;;;;;;;6.97;3.05;;;25.30;58.80;;;;;;5051692;28;20475;-71
2021/06/11 10:58:40;;;;;;;7.15;4.43;;;25.30;58.70;;;;;;5051449;28;20045;-72
2021/06/11 11:01:27;;;;;;;7.25;3.75;;;25.10;58.90;;;;;;5050836;28;20045;-71
2021/06/11 11:03:54;;;;;;;5.70;4.00;;;25.10;59.10;;;;;;5051367;28;20437;-72
2021/06/11 11:06:34;;;;;;;6.25;4.30;;;25.10;58.80;;;;;;5050505;28;20052;-71
2021/06/11 11:09:03;;;;;;;9.73;7.28;;;25.00;58.90;;;;;;5051087;28;20102;-71
2021/06/11 11:11:35;;;;;;;9.13;8.07;;;25.10;59.60;;;;;;5051551;28;20060;-70
2021/06/11 11:14:02;;;;;;;9.02;7.20;;;25.30;59.60;;;;;;5050488;28;20079;-71
2021/06/11 11:16:37;;;;;;;12.65;8.32;;;25.50;59.90;;;;;;5051166;28;20041;-71
2021/06/11 11:19:07;;;;;;;12.55;8.50;;;25.70;59.10;;;;;;5051077;28;20494;-71
2021/06/11 11:21:36;;;;;;;12.55;10.48;;;25.90;58.80;;;;;;5050030;28;20485;-71
2021/06/11 11:24:07;;;;;;;7.57;6.70;;;26.10;58.80;;;;;;5050820;28;20110;-70
2021/06/11 11:26:45;;;;;;;11.73;9.13;;;26.20;58.10;;;;;;5051380;28;20060;-72
2021/06/11 11:29:13;;;;;;;12.52;9.43;;;26.30;57.10;;;;;;5049914;28;20128;-71
2021/06/11 11:31:39;;;;;;;12.60;9.90;;;26.30;57.30;;;;;;5051221;28;20049;-70
2021/06/11 11:34:09;;;;;;;10.75;8.18;;;26.20;57.40;;;;;;5050070;28;20048;-71
2021/06/11 11:36:36;;;;;;;;;;;26.00;57.20;;;;;;5051630;28;20048;-71
2021/06/11 11:39:08;;;;;;;16.15;12.13;;;25.80;58.40;;;;;;5050873;28;19916;-71
2021/06/11 11:41:36;;;;;;;15.70;12.30;;;25.60;59.00;;;;;;5050573;28;20052;-69
2021/06/11 11:44:03;;;;;;;17.05;12.60;;;25.20;59.40;;;;;;5050841;28;20137;-74
2021/06/11 11:46:29;;;;;;;13.80;11.35;;;25.00;60.10;;;;;;5050483;28;20052;-68
2021/06/11 11:48:55;;;;;;;13.20;9.98;;;24.80;60.60;;;;;;5050135;28;20041;-68
2021/06/11 11:51:23;;;;;;;14.55;12.02;;;24.60;61.10;;;;;;5051179;28;20115;-68
2021/06/11 11:53:50;;;;;;;12.63;11.32;;;24.50;61.30;;;;;;5050930;28;20060;-69
2021/06/11 11:56:16;;;;;;;13.32;11.60;;;24.50;61.90;;;;;;5049813;28;20492;-68
2021/06/11 11:58:41;;;;;;;13.65;11.13;;;24.70;61.70;;;;;;5050366;28;20049;-68
2021/06/11 12:01:12;;;;;;;;;;;25.00;61.30;;;;;;5050968;28;20125;-68
2021/06/11 12:03:45;;;;;;;14.38;11.38;;;25.30;61.20;;;;;;5048789;28;20020;-72
2021/06/11 12:06:11;;;;;;;14.82;13.05;;;25.60;59.80;;;;;;5050451;28;20131;-73
2021/06/11 12:08:39;;;;;;;15.70;14.10;;;25.80;59.00;;;;;;5050994;28;20136;-73
2021/06/11 12:11:04;;;;;;;18.10;14.38;;;26.00;58.80;;;;;;5049396;28;20215;-73
2021/06/11 12:13:39;;;;;;;14.88;13.20;;;26.10;58.20;;;;;;5050459;28;20053;-76
2021/06/11 12:16:06;;;;;;;13.95;12.20;;;26.20;58.40;;;;;;5050229;28;20045;-73
2021/06/11 12:18:31;;;;;;;14.68;13.05;;;26.30;58.10;;;;;;5050318;28;20405;-73
2021/06/11 12:20:57;;;;;;;13.10;11.68;;;26.40;57.20;;;;;;5032758;28;20049;-74
2021/06/11 12:23:23;;;;;;;17.67;15.77;;;26.50;57.00;;;;;;5049801;28;20435;-74
2021/06/11 12:25:49;;;;;;;18.63;16.65;;;26.60;56.60;;;;;;5050995;28;20140;-74
2021/06/11 12:28:16;;;;;;;21.88;18.35;;;26.60;57.10;;;;;;5052138;28;20144;-75
2021/06/11 12:30:45;;;;;;;23.70;19.45;;;26.50;58.00;;;;;;5053543;28;20061;-74
2021/06/11 12:33:10;;;;;;;22.63;20.23;;;26.40;58.60;;;;;;5054223;28;20128;-76
2021/06/11 12:35:36;;;;;;;22.98;20.58;;;26.20;58.70;;;;;;5054401;28;20570;-74
2021/06/11 12:38:02;;;;;;;24.77;22.17;;;25.80;59.70;;;;;;5053133;28;20453;-74
2021/06/11 12:40:28;;;;;;;23.52;21.05;;;25.30;60.70;;;;;;5054074;28;20059;-76
2021/06/11 12:43:03;;;;;;;24.67;22.15;;;25.00;61.60;;;;;;5053915;28;20045;-78